| time (UTC) | temp C | wind direction | speed KPH | gust KPH | rain 1hr cm | rain 24hr cm | rain mn cm | humidity % | barometer mb |
| 20260504215100 | 26 | 115 | 3.2 | 9.7 | 0.00 | 0.00 | 0.00 | 53 | 1015.0 |
| 20260504214600 | 26 | 88 | 3.2 | 9.7 | 0.00 | 0.00 | 0.00 | 53 | 1014.0 |
| 20260504214100 | 26 | 100 | 6.4 | 11.3 | 0.00 | 0.00 | 0.00 | 52 | 1015.0 |
| 20260504213601 | 26 | 101 | 4.8 | 8.0 | 0.00 | 0.00 | 0.00 | 53 | 1015.0 |
| 20260504213100 | 26 | 100 | 8.0 | 12.9 | 0.00 | 0.00 | 0.00 | 53 | 1014.0 |
| 20260504212601 | 26 | 99 | 8.0 | 14.5 | 0.00 | 0.00 | 0.00 | 52 | 1014.0 |
| 20260504212100 | 26 | 95 | 9.7 | 16.1 | 0.00 | 0.00 | 0.00 | 52 | 1014.0 |
| 20260504211600 | 26 | 81 | 6.4 | 8.0 | 0.00 | 0.00 | 0.00 | 53 | 1015.0 |
| 20260504211100 | 27 | 104 | 6.4 | 11.3 | 0.00 | 0.00 | 0.00 | 52 | 1015.0 |
| 20260504210600 | 27 | 173 | 3.2 | 11.3 | 0.00 | 0.00 | 0.00 | 51 | 1015.0 |
| 20260504210101 | 27 | 142 | 4.8 | 9.7 | 0.00 | 0.00 | 0.00 | 52 | 1015.0 |
| 20260504205601 | 27 | 82 | 4.8 | 9.7 | 0.00 | 0.00 | 0.00 | 51 | 1015.0 |
| 20260504205101 | 27 | 93 | 6.4 | 9.7 | 0.00 | 0.00 | 0.00 | 51 | 1015.0 |
| 20260504204601 | 27 | 94 | 6.4 | 17.7 | 0.00 | 0.00 | 0.00 | 51 | 1015.0 |
| 20260504204100 | 27 | 102 | 6.4 | 12.9 | 0.00 | 0.00 | 0.00 | 52 | 1015.0 |
| 20260504203600 | 27 | 139 | 9.7 | 11.3 | 0.00 | 0.00 | 0.00 | 50 | 1015.0 |
| 20260504203100 | 27 | 80 | 4.8 | 9.7 | 0.00 | 0.00 | 0.00 | 49 | 1015.0 |
| 20260504202604 | 27 | 125 | 4.8 | 11.3 | 0.00 | 0.00 | 0.00 | 50 | 1015.0 |
| 20260504202103 | 27 | 96 | 6.4 | 12.9 | 0.00 | 0.00 | 0.00 | 50 | 1015.0 |
| 20260504201600 | 27 | 97 | 3.2 | 9.7 | 0.00 | 0.00 | 0.00 | 51 | 1015.0 |
| 20260504201100 | 27 | 80 | 1.6 | 4.8 | 0.00 | 0.00 | 0.00 | 51 | 1015.0 |
| 20260504200600 | 27 | 80 | 6.4 | 11.3 | 0.00 | 0.00 | 0.00 | 51 | 1015.0 |
| 20260504200100 | 27 | 143 | 4.8 | 9.7 | 0.00 | 0.00 | 0.00 | 50 | 1015.0 |
| 20260504195600 | 26 | 105 | 6.4 | 12.9 | 0.00 | 0.00 | 0.00 | 51 | 1015.0 |
| 20260504195100 | 26 | 132 | 3.2 | 9.7 | 0.00 | 0.00 | 0.00 | 51 | 1015.0 |
| 20260504194601 | 26 | 127 | 4.8 | 9.7 | 0.00 | 0.00 | 0.00 | 51 | 1015.0 |
| 20260504194101 | 26 | 114 | 4.8 | 9.7 | 0.00 | 0.00 | 0.00 | 53 | 1015.0 |
| 20260504193600 | 26 | 102 | 4.8 | 14.5 | 0.00 | 0.00 | 0.00 | 52 | 1015.0 |
| 20260504193100 | 26 | 92 | 6.4 | 11.3 | 0.00 | 0.00 | 0.00 | 53 | 1015.0 |
| 20260504192601 | 27 | 102 | 4.8 | 11.3 | 0.00 | 0.00 | 0.00 | 50 | 1015.0 |
| 20260504192101 | 26 | 78 | 4.8 | 9.7 | 0.00 | 0.00 | 0.00 | 51 | 1015.0 |
| 20260504191600 | 26 | 98 | 3.2 | 8.0 | 0.00 | 0.00 | 0.00 | 53 | 1015.0 |
| 20260504191101 | 26 | 105 | 3.2 | 6.4 | 0.00 | 0.00 | 0.00 | 53 | 1015.0 |
| 20260504190601 | 26 | 95 | 9.7 | 12.9 | 0.00 | 0.00 | 0.00 | 52 | 1015.0 |
| 20260504190101 | 26 | 128 | 3.2 | 8.0 | 0.00 | 0.00 | 0.00 | 51 | 1016.0 |
| 20260504185600 | 26 | 94 | 6.4 | 11.3 | 0.00 | 0.00 | 0.00 | 51 | 1016.0 |
| 20260504185101 | 26 | 116 | 4.8 | 11.3 | 0.00 | 0.00 | 0.00 | 52 | 1016.0 |
| 20260504184600 | 27 | 136 | 6.4 | 9.7 | 0.00 | 0.00 | 0.00 | 49 | 1016.0 |
| 20260504184101 | 27 | 111 | 6.4 | 8.0 | 0.00 | 0.00 | 0.00 | 49 | 1016.0 |
| 20260504183600 | 27 | 133 | 1.6 | 4.8 | 0.00 | 0.00 | 0.00 | 51 | 1016.0 |
| 20260504183100 | 27 | 63 | 4.8 | 9.7 | 0.00 | 0.00 | 0.00 | 50 | 1016.0 |
| 20260504182600 | 27 | 49 | 4.8 | 8.0 | 0.00 | 0.00 | 0.00 | 48 | 1016.0 |
| 20260504182100 | 26 | 88 | 6.4 | 9.7 | 0.00 | 0.00 | 0.00 | 48 | 1016.0 |
| 20260504181602 | 26 | 85 | 4.8 | 11.3 | 0.00 | 0.00 | 0.00 | 51 | 1016.0 |
| 20260504181100 | 26 | 90 | 1.6 | 4.8 | 0.00 | 0.00 | 0.00 | 53 | 1016.0 |
| 20260504180600 | 26 | 61 | 4.8 | 8.0 | 0.00 | 0.00 | 0.00 | 52 | 1016.0 |
| 20260504175601 | 26 | 68 | 3.2 | 6.4 | 0.00 | 0.00 | 0.00 | 51 | 1016.0 |
| 20260504175101 | 26 | 59 | 8.0 | 14.5 | 0.00 | 0.00 | 0.00 | 51 | 1016.0 |
| 20260504174601 | 26 | 20 | 3.2 | 6.4 | 0.00 | 0.00 | 0.00 | 50 | 1016.0 |
| 20260504174102 | 26 | 133 | 3.2 | 9.7 | 0.00 | 0.00 | 0.00 | 50 | 1016.0 |
| 20260504173607 | 26 | 22 | 3.2 | 6.4 | 0.00 | 0.00 | 0.00 | 50 | 1016.0 |
| 20260504173100 | 27 | 64 | 4.8 | 8.0 | 0.00 | 0.00 | 0.00 | 48 | 1016.0 |
| 20260504172600 | 27 | 106 | 3.2 | 6.4 | 0.00 | 0.00 | 0.00 | 47 | 1016.0 |
| 20260504172100 | 27 | 111 | 4.8 | 9.7 | 0.00 | 0.00 | 0.00 | 48 | 1016.0 |
| 20260504171602 | 26 | 60 | 1.6 | 4.8 | 0.00 | 0.00 | 0.00 | 48 | 1016.0 |
| 20260504171101 | 26 | 48 | 4.8 | 8.0 | 0.00 | 0.00 | 0.00 | 49 | 1017.0 |
| 20260504170600 | 26 | 57 | 3.2 | 6.4 | 0.00 | 0.00 | 0.00 | 50 | 1017.0 |
| 20260504160103 | 25 | 44 | 4.8 | 11.3 | 0.00 | 0.00 | 0.00 | 51 | 1017.0 |
| 20260504151101 | 25 | 61 | 6.4 | 11.3 | 0.00 | 0.00 | 0.00 | 49 | 1017.0 |
| 20260504150601 | 25 | 62 | 8.0 | 12.9 | 0.00 | 0.00 | 0.00 | 52 | 1017.0 |
| 20260504141100 | 23 | 71 | 6.4 | 9.7 | 0.00 | 0.00 | 0.00 | 58 | 1017.0 |
| 20260504140601 | 23 | 35 | 9.7 | 19.3 | 0.00 | 0.00 | 0.00 | 57 | 1017.0 |
| 20260504130601 | 21 | 53 | 6.4 | 11.3 | 0.00 | 0.00 | 0.00 | 69 | 1017.0 |
| 20260504110600 | 18 | 29 | 3.2 | 4.8 | 0.00 | 0.00 | 0.00 | 84 | 1016.0 |
| 20260504100600 | 19 | 58 | 1.6 | 4.8 | 0.00 | 0.00 | 0.00 | 81 | 1016.0 |
| 20260504081628 | 20 | 52 | 1.6 | 4.8 | 0.00 | 0.00 | 0.00 | 78 | 1016.0 |
| 20260504081100 | 20 | 49 | 3.2 | 6.4 | 0.00 | 0.00 | 0.00 | 79 | 1016.0 |
| 20260504080600 | 20 | 38 | 3.2 | 6.4 | 0.00 | 0.00 | 0.00 | 79 | 1016.0 |
| 20260504050600 | 20 | 49 | 3.2 | 6.4 | 0.00 | 0.00 | 0.00 | 79 | 1017.0 |
| 20260504045600 | 20 | 61 | 4.8 | 6.4 | 0.00 | 0.00 | 0.00 | 78 | 1017.0 |
| 20260504045100 | 20 | 51 | 0.0 | 3.2 | 0.00 | 0.00 | 0.00 | 80 | 1017.0 |
| 20260504044601 | 20 | 61 | 0.0 | 0.0 | 0.00 | 0.00 | 0.00 | 79 | 1017.0 |
| 20260504044102 | 20 | 59 | 1.6 | 4.8 | 0.00 | 0.00 | 0.00 | 79 | 1017.0 |
| 20260504043601 | 20 | 56 | 1.6 | 4.8 | 0.00 | 0.00 | 0.00 | 79 | 1017.0 |
| 20260504043101 | 20 | 34 | 1.6 | 3.2 | 0.00 | 0.00 | 0.00 | 79 | 1017.0 |
| 20260504042600 | 20 | 0 | 0.0 | 0.0 | 0.00 | 0.00 | 0.00 | 80 | 1017.0 |
| 20260504042101 | 20 | 26 | 0.0 | 3.2 | 0.00 | 0.00 | 0.00 | 80 | 1017.0 |
| 20260504041601 | 20 | 31 | 0.0 | 3.2 | 0.00 | 0.00 | 0.00 | 80 | 1017.0 |
| 20260504041101 | 20 | 0 | 0.0 | 0.0 | 0.00 | 0.00 | 0.00 | 79 | 1017.0 |
| 20260504040601 | 20 | 0 | 0.0 | 0.0 | 0.00 | 0.00 | 0.00 | 80 | 1017.0 |
| 20260504040100 | 20 | 49 | 0.0 | 0.0 | 0.00 | 0.00 | 0.00 | 80 | 1017.0 |
| 20260504035601 | 20 | 54 | 0.0 | 3.2 | 0.00 | 0.00 | 0.25 | 78 | 1017.0 |
| 20260504035100 | 20 | 57 | 0.0 | 3.2 | 0.00 | 0.00 | 0.25 | 80 | 1017.0 |
| 20260504034600 | 20 | 49 | 1.6 | 4.8 | 0.00 | 0.00 | 0.25 | 79 | 1017.0 |
| 20260504034101 | 20 | 62 | 0.0 | 0.0 | 0.00 | 0.00 | 0.25 | 79 | 1017.0 |
| 20260504033601 | 20 | 64 | 1.6 | 4.8 | 0.00 | 0.00 | 0.25 | 78 | 1017.0 |
| 20260504033100 | 20 | 50 | 0.0 | 3.2 | 0.00 | 0.00 | 0.25 | 79 | 1017.0 |
| 20260504032600 | 20 | 55 | 1.6 | 4.8 | 0.00 | 0.00 | 0.25 | 79 | 1017.0 |
| 20260504032100 | 21 | 46 | 1.6 | 3.2 | 0.00 | 0.00 | 0.25 | 79 | 1017.0 |
| 20260504031601 | 21 | 48 | 1.6 | 3.2 | 0.00 | 0.00 | 0.25 | 78 | 1017.0 |
| 20260504031100 | 21 | 0 | 0.0 | 0.0 | 0.00 | 0.00 | 0.25 | 78 | 1017.0 |
| 20260504030601 | 21 | 36 | 0.0 | 4.8 | 0.00 | 0.00 | 0.25 | 76 | 1017.0 |
| 20260504030100 | 21 | 49 | 0.0 | 3.2 | 0.00 | 0.00 | 0.25 | 76 | 1017.0 |
| 20260504025600 | 21 | 65 | 0.0 | 3.2 | 0.00 | 0.00 | 0.25 | 75 | 1017.0 |
| 20260504025101 | 21 | 0 | 0.0 | 0.0 | 0.00 | 0.00 | 0.25 | 77 | 1017.0 |
| 20260504024602 | 21 | 40 | 0.0 | 3.2 | 0.00 | 0.00 | 0.25 | 76 | 1017.0 |
| 20260504024101 | 21 | 51 | 0.0 | 3.2 | 0.00 | 0.00 | 0.25 | 76 | 1017.0 |
| 20260504023601 | 21 | 0 | 0.0 | 0.0 | 0.00 | 0.00 | 0.25 | 76 | 1017.0 |
| 20260504023101 | 21 | 0 | 0.0 | 0.0 | 0.00 | 0.00 | 0.25 | 76 | 1017.0 |
| 20260504022600 | 21 | 54 | 1.6 | 3.2 | 0.00 | 0.00 | 0.25 | 75 | 1017.0 |
| 20260504022101 | 21 | 0 | 0.0 | 0.0 | 0.00 | 0.00 | 0.25 | 75 | 1017.0 |
| 20260504021601 | 21 | 92 | 0.0 | 3.2 | 0.00 | 0.00 | 0.25 | 75 | 1017.0 |
| 20260504021100 | 21 | 0 | 0.0 | 0.0 | 0.00 | 0.00 | 0.25 | 74 | 1017.0 |
| 20260504020600 | 21 | 59 | 0.0 | 3.2 | 0.00 | 0.00 | 0.25 | 74 | 1017.0 |
| 20260504020100 | 21 | 0 | 0.0 | 0.0 | 0.00 | 0.00 | 0.25 | 74 | 1017.0 |
| 20260504015600 | 21 | 44 | 0.0 | 3.2 | 0.00 | 0.00 | 0.25 | 74 | 1017.0 |
| 20260504015101 | 21 | 87 | 1.6 | 4.8 | 0.00 | 0.00 | 0.25 | 74 | 1017.0 |
| 20260504014601 | 21 | 0 | 0.0 | 0.0 | 0.00 | 0.00 | 0.25 | 74 | 1017.0 |
| 20260504014100 | 21 | 69 | 0.0 | 3.2 | 0.00 | 0.00 | 0.25 | 73 | 1017.0 |
| 20260504013600 | 21 | 85 | 0.0 | 0.0 | 0.00 | 0.00 | 0.25 | 73 | 1017.0 |
| 20260504013101 | 21 | 0 | 0.0 | 0.0 | 0.00 | 0.00 | 0.25 | 73 | 1017.0 |
| 20260504012600 | 21 | 76 | 0.0 | 3.2 | 0.00 | 0.00 | 0.25 | 72 | 1017.0 |
| 20260504012100 | 21 | 98 | 3.2 | 6.4 | 0.00 | 0.00 | 0.25 | 72 | 1017.0 |
| 20260504011600 | 21 | 61 | 1.6 | 3.2 | 0.00 | 0.00 | 0.25 | 72 | 1017.0 |
| 20260504011100 | 21 | 48 | 0.0 | 0.0 | 0.00 | 0.00 | 0.25 | 72 | 1017.0 |
| 20260504010601 | 21 | 60 | 0.0 | 3.2 | 0.00 | 0.00 | 0.25 | 72 | 1017.0 |
| 20260504010101 | 21 | 84 | 1.6 | 4.8 | 0.00 | 0.00 | 0.25 | 71 | 1017.0 |
| 20260504005600 | 21 | 44 | 1.6 | 3.2 | 0.00 | 0.00 | 0.25 | 71 | 1016.0 |
| 20260504005101 | 22 | 97 | 3.2 | 6.4 | 0.00 | 0.00 | 0.25 | 70 | 1016.0 |
| 20260504004601 | 22 | 78 | 0.0 | 3.2 | 0.00 | 0.00 | 0.25 | 70 | 1016.0 |
| 20260504004101 | 22 | 93 | 3.2 | 6.4 | 0.00 | 0.00 | 0.25 | 69 | 1016.0 |
| 20260504003603 | 22 | 77 | 3.2 | 6.4 | 0.00 | 0.00 | 0.25 | 69 | 1016.0 |
| 20260504003100 | 22 | 96 | 4.8 | 8.0 | 0.00 | 0.00 | 0.25 | 69 | 1016.0 |
| 20260504002600 | 22 | 58 | 3.2 | 6.4 | 0.00 | 0.00 | 0.25 | 68 | 1016.0 |
| 20260504002101 | 22 | 73 | 1.6 | 3.2 | 0.00 | 0.00 | 0.25 | 68 | 1016.0 |
| 20260504001601 | 22 | 83 | 3.2 | 6.4 | 0.00 | 0.00 | 0.25 | 68 | 1016.0 |
| 20260504001100 | 22 | 72 | 1.6 | 4.8 | 0.00 | 0.00 | 0.25 | 68 | 1016.0 |
| 20260504000600 | 22 | 88 | 3.2 | 6.4 | 0.00 | 0.00 | 0.25 | 68 | 1016.0 |
| 20260504000100 | 22 | 94 | 4.8 | 8.0 | 0.00 | 0.00 | 0.25 | 67 | 1016.0 |
| 20260503235600 | 22 | 95 | 3.2 | 6.4 | 0.00 | 0.00 | 0.25 | 67 | 1016.0 |
| 20260503235100 | 22 | 72 | 1.6 | 4.8 | 0.00 | 0.00 | 0.25 | 67 | 1016.0 |
| 20260503234601 | 22 | 97 | 0.0 | 3.2 | 0.00 | 0.00 | 0.25 | 67 | 1016.0 |
| 20260503234100 | 23 | 67 | 4.8 | 6.4 | 0.00 | 0.00 | 0.25 | 66 | 1016.0 |
| 20260503233600 | 23 | 66 | 4.8 | 8.0 | 0.00 | 0.00 | 0.25 | 66 | 1016.0 |
| 20260503233101 | 23 | 62 | 1.6 | 4.8 | 0.00 | 0.00 | 0.25 | 67 | 1016.0 |
| 20260503232600 | 23 | 91 | 1.6 | 6.4 | 0.00 | 0.00 | 0.25 | 67 | 1016.0 |
| 20260503232101 | 23 | 81 | 3.2 | 4.8 | 0.00 | 0.00 | 0.25 | 67 | 1016.0 |
| 20260503231600 | 23 | 88 | 3.2 | 4.8 | 0.00 | 0.00 | 0.25 | 67 | 1016.0 |
| 20260503231100 | 23 | 86 | 4.8 | 11.3 | 0.00 | 0.00 | 0.25 | 67 | 1016.0 |
| 20260503230600 | 23 | 61 | 4.8 | 12.9 | 0.00 | 0.00 | 0.25 | 67 | 1016.0 |
| 20260503230100 | 23 | 97 | 6.4 | 8.0 | 0.00 | 0.00 | 0.25 | 66 | 1016.0 |
| 20260503225601 | 23 | 91 | 6.4 | 8.0 | 0.00 | 0.00 | 0.25 | 66 | 1016.0 |
| 20260503225100 | 23 | 48 | 3.2 | 4.8 | 0.00 | 0.00 | 0.25 | 66 | 1016.0 |
| 20260503224600 | 23 | 93 | 6.4 | 9.7 | 0.00 | 0.00 | 0.25 | 66 | 1016.0 |
| 20260503224100 | 23 | 86 | 6.4 | 9.7 | 0.00 | 0.00 | 0.25 | 65 | 1016.0 |
| 20260503223601 | 23 | 91 | 1.6 | 4.8 | 0.00 | 0.00 | 0.25 | 66 | 1016.0 |
| 20260503223101 | 23 | 75 | 3.2 | 8.0 | 0.00 | 0.00 | 0.25 | 66 | 1016.0 |
| 20260503222601 | 23 | 54 | 4.8 | 11.3 | 0.00 | 0.00 | 0.25 | 65 | 1016.0 |
| 20260503222100 | 23 | 94 | 6.4 | 8.0 | 0.00 | 0.00 | 0.25 | 65 | 1016.0 |
| 20260503221601 | 23 | 96 | 8.0 | 12.9 | 0.00 | 0.00 | 0.25 | 65 | 1016.0 |
| 20260503221100 | 23 | 92 | 3.2 | 8.0 | 0.00 | 0.00 | 0.25 | 66 | 1016.0 |
| 20260503220600 | 23 | 122 | 3.2 | 6.4 | 0.00 | 0.00 | 0.25 | 65 | 1016.0 |
| 20260503215600 | 23 | 117 | 3.2 | 9.7 | 0.00 | 0.00 | 0.25 | 65 | 1016.0 |